Hrodna HR Speed Test Log

Averages  Max Speed    
1 to 25 of 305** for City Hrodna HR
Time
Speed Provider Size    User ConnectID  TestID   
6/30/20 2:46:21 pm 1.39 Mbps 174 kB/sBest Cjsc 1.2 MB46770953410 kJcMBFPc1 
6/30/20 2:46:10 pm 1.25 Mbps 156 kB/sBest Cjsc 2.1 MB46770953410 SQptKXPD6 
6/24/20 4:35:07 pm 68.94 Mbps 8.62 MB/sMobile 38.8 MB1633878162257 z1OXpFMVB 
6/24/20 4:34:57 pm 87.11 Mbps 10.89 MB/sMobile 83.5 MB1633878162257 Fq8_g4tgd 
6/24/20 2:28:33 pm 3.26 Mbps 408 kB/sBeltelecom 2.3 MB341256981437 14D6jspvA 
6/23/20 6:40:48 pm 59.68 Mbps 7.46 MB/sBeltelecom 56 MB1633438568039 NZ3cIeRcl 
6/20/20 1:27:34 pm 1.6 Mbps 200 kB/sBest Cjsc 1.1 MB46770961022 5zcsyzBtL 
6/20/20 1:27:24 pm 2.22 Mbps 277 kB/sBest Cjsc 2.5 MB46770961022 bjhPRfzn4 
6/19/20 7:53:45 am 15.43 Mbps 1.93 MB/sBeltelecom 58.7 MB34125621898 9EznF8UR1 
6/16/20 9:07:54 pm 75.98 Mbps 9.5 MB/sBeltelecom 60.9 MB3412610985956 x-cnrxjRF 
6/16/20 9:07:43 pm 92.21 Mbps 11.53 MB/sBeltelecom 75.9 MB3412610985956 QtR9yaWX8 
6/16/20 1:09:59 pm 17 Mbps 2.12 MB/sBest Cjsc 6.4 MB46770961022 1Nvx7oc05 
6/16/20 1:09:52 pm 19.67 Mbps 2.46 MB/sBest Cjsc 22.6 MB46770961022 twQvH3BKV 
6/16/20 1:09:34 pm 263 kbps 33 kB/sBest Cjsc 1.3 MB46770961022 4Tx8lBATE 
6/16/20 1:08:51 pm 4.53 Mbps 566 kB/sBest Cjsc 23.3 MB46770961022 9NQPPzKFU 
6/16/20 12:12:39 pm 10.41 Mbps 1.3 MB/sBest Cjsc 6.2 MB467709488372 n59pZ2mhD 
6/16/20 12:12:30 pm 3.66 Mbps 458 kB/sBest Cjsc 14.5 MB467709488372 rhEOWn9mn 
6/14/20 9:52:26 am 1.99 Mbps 249 kB/sBest Cjsc 1.2 MBOlegVK246770957170 YtLcmTRTz 
6/14/20 9:52:15 am 10.69 Mbps 1.34 MB/sBest Cjsc 13.8 MBOlegVK246770957170 7aDmm19U2 
6/14/20 6:57:58 am 527 kbps 66 kB/sBeltelecom 480 kB34125773118 IwSGja4jf 
6/14/20 6:57:41 am 463 kbps 58 kB/sBeltelecom 480 kB34125773118 UkkjstSEu 
6/11/20 3:00:53 pm 23.61 Mbps 2.95 MB/sBest Cjsc 18.9 MB467711043952 hiPSnsEdE 
6/11/20 3:00:37 pm 3.55 Mbps 444 kB/sBest Cjsc 7.4 MB467711043952 IodEmNYKP 
6/11/20 11:55:06 am 3.52 Mbps 440 kB/sBest Cjsc 3.6 MB467711043952 kg40moW3T 
6/11/20 11:54:51 am 1.94 Mbps 243 kB/sBest Cjsc 2.5 MB467711043952 km0qZ8q_g 
  
** Partial Results: The most recent results have been displayed. Results over 50 Mbps are highlighted.
Graphed results calculation
Displaying Internet Speed Test results for City Hrodna HR

Minimum

Min 1.25 Mbps : 0.26 Mbps

Average [show Median]

Average 25.16 Mbps : 16.07 Mbps

Maximum

Max 92.21 Mbps : 75.98 Mbps

Minimum

Minimum: 1.25 Mbps : 0.26 Mbps

Average

Average: 25.16 Mbps : 16.07 Mbps [show Median]

Maximum

Maximum: 92.21 Mbps : 75.98 Mbps